createdAt,value
2018-02-02T00:00:59.821Z,0
2018-02-02T00:02:09.382Z,0
2018-02-02T00:03:19.185Z,0
2018-02-02T00:04:29.296Z,0
2018-02-02T00:05:39.354Z,0
2018-02-02T00:06:49.403Z,0
2018-02-02T00:07:59.194Z,0
2018-02-02T00:09:09.287Z,0
2018-02-02T00:10:19.405Z,0
2018-02-02T00:11:29.471Z,0
2018-02-02T00:12:40.215Z,0
2018-02-02T00:13:50.039Z,0
2018-02-02T00:15:00.088Z,0
2018-02-02T00:16:10.167Z,0
2018-02-02T00:17:20.215Z,0
2018-02-02T00:18:30.047Z,0
2018-02-02T00:19:40.106Z,0
2018-02-02T00:20:50.185Z,0
2018-02-02T00:22:00.295Z,0
2018-02-02T00:23:09.586Z,0
2018-02-02T00:24:19.651Z,0
2018-02-02T00:25:29.717Z,0
2018-02-02T00:26:39.756Z,0
2018-02-02T00:27:49.853Z,0
2018-02-02T00:28:59.903Z,0
2018-02-02T00:30:09.982Z,0
2018-02-02T00:31:20.025Z,0
2018-02-02T00:32:30.084Z,0
2018-02-02T00:33:39.889Z,0
2018-02-02T00:34:49.952Z,0
2018-02-02T00:35:59.489Z,0
2018-02-02T00:37:09.302Z,0
2018-02-02T00:38:19.348Z,0
2018-02-02T00:39:29.445Z,0
2018-02-02T00:40:39.240Z,0
2018-02-02T00:41:49.019Z,0
2018-02-02T00:42:59.076Z,0
2018-02-02T00:44:09.127Z,0
2018-02-02T00:45:19.180Z,0
2018-02-02T00:46:29.225Z,0
2018-02-02T00:47:39.022Z,0
2018-02-02T00:48:49.079Z,0
2018-02-02T00:49:59.120Z,0
2018-02-02T00:51:09.412Z,0
2018-02-02T00:52:19.475Z,0
2018-02-02T00:53:29.528Z,0
2018-02-02T00:54:39.606Z,0
2018-02-02T00:55:49.401Z,0
2018-02-02T00:56:59.540Z,0
2018-02-02T00:58:09.331Z,0
2018-02-02T00:59:19.390Z,0
2018-02-02T01:00:28.916Z,0
2018-02-02T01:01:38.978Z,0
2018-02-02T01:02:49.039Z,0
2018-02-02T01:03:59.090Z,0
2018-02-02T01:05:09.153Z,0
2018-02-02T01:06:18.939Z,0
2018-02-02T01:07:28.988Z,0
2018-02-02T01:08:39.106Z,0
2018-02-02T01:09:49.165Z,0
2018-02-02T01:10:58.959Z,0
2018-02-02T01:12:09.000Z,0
2018-02-02T01:13:19.058Z,0
2018-02-02T01:14:29.167Z,0
2018-02-02T01:15:39.228Z,0
2018-02-02T01:16:48.764Z,0
2018-02-02T01:17:58.856Z,0
2018-02-02T01:19:08.919Z,0
2018-02-02T01:20:18.750Z,0
2018-02-02T01:21:28.803Z,0
2018-02-02T01:22:38.849Z,0
2018-02-02T01:23:48.902Z,0
2018-02-02T01:24:58.970Z,0
2018-02-02T01:26:09.017Z,0
2018-02-02T01:27:19.055Z,0
2018-02-02T01:28:29.099Z,0
2018-02-02T01:29:38.891Z,0
2018-02-02T01:30:48.945Z,0
2018-02-02T01:31:58.992Z,0
2018-02-02T01:33:09.054Z,0
2018-02-02T01:34:19.096Z,0
2018-02-02T01:35:29.136Z,0
2018-02-02T01:36:39.172Z,0
2018-02-02T01:37:49.235Z,0
2018-02-02T01:38:59.281Z,0
2018-02-02T01:40:09.343Z,0
2018-02-02T01:41:19.397Z,0
2018-02-02T01:42:29.439Z,0
2018-02-02T01:43:39.495Z,0
2018-02-02T01:44:49.282Z,0
2018-02-02T01:45:59.337Z,0
2018-02-02T01:47:09.373Z,0
2018-02-02T01:48:19.422Z,0
2018-02-02T01:49:29.530Z,0
2018-02-02T01:50:39.581Z,0
2018-02-02T01:51:49.627Z,0
2018-02-02T01:52:59.682Z,0
2018-02-02T01:54:09.742Z,0
2018-02-02T01:55:19.803Z,0
2018-02-02T01:56:29.856Z,0
2018-02-02T01:57:40.099Z,0
2018-02-02T01:58:49.876Z,0
2018-02-02T01:59:59.659Z,0
2018-02-02T02:01:09.771Z,0
2018-02-02T02:02:19.830Z,0
2018-02-02T02:03:29.895Z,0
2018-02-02T02:04:39.942Z,0
2018-02-02T02:05:49.719Z,0
2018-02-02T02:06:59.761Z,0
2018-02-02T02:08:09.547Z,0
2018-02-02T02:09:19.594Z,0
2018-02-02T02:10:29.630Z,0
2018-02-02T02:11:39.683Z,0
2018-02-02T02:12:49.789Z,0
2018-02-02T02:13:59.576Z,0
2018-02-02T02:15:09.397Z,0
2018-02-02T02:16:19.450Z,0
2018-02-02T02:17:29.482Z,0
2018-02-02T02:18:39.534Z,0
2018-02-02T02:19:49.575Z,0
2018-02-02T02:20:59.676Z,0
2018-02-02T02:22:09.715Z,0
2018-02-02T02:23:19.767Z,0
2018-02-02T02:24:29.607Z,0
2018-02-02T02:25:39.650Z,0
2018-02-02T02:26:49.440Z,0
2018-02-02T02:27:59.490Z,0
2018-02-02T02:29:09.291Z,0
2018-02-02T02:30:19.353Z,0
2018-02-02T02:31:29.143Z,0
2018-02-02T02:32:38.930Z,0
2018-02-02T02:33:48.980Z,0
2018-02-02T02:34:58.923Z,0
2018-02-02T02:36:08.755Z,0
2018-02-02T02:37:18.820Z,0
2018-02-02T02:38:28.870Z,0
2018-02-02T02:39:38.921Z,0
2018-02-02T02:40:48.954Z,0
2018-02-02T02:42:00.168Z,0
2018-02-02T02:43:10.211Z,0
2018-02-02T02:44:20.262Z,0
2018-02-02T02:45:30.067Z,0
2018-02-02T02:46:40.127Z,0
2018-02-02T02:47:50.179Z,0
2018-02-02T02:48:59.709Z,0
2018-02-02T02:50:09.768Z,0
2018-02-02T02:51:19.838Z,0
2018-02-02T02:52:29.366Z,0
2018-02-02T02:53:39.419Z,0
2018-02-02T02:54:49.477Z,0
2018-02-02T02:55:59.008Z,0
2018-02-02T02:57:08.782Z,0
2018-02-02T02:58:18.586Z,0
2018-02-02T02:59:28.700Z,0
2018-02-02T03:00:38.494Z,0
2018-02-02T03:01:48.532Z,0
2018-02-02T03:02:58.571Z,0
2018-02-02T03:34:49.819Z,0
2018-02-02T03:35:59.865Z,0
2018-02-02T03:37:09.891Z,0
2018-02-02T03:38:19.929Z,0
2018-02-02T03:39:29.191Z,0
2018-02-02T03:40:38.772Z,0
2018-02-02T03:41:48.810Z,0
2018-02-02T03:42:58.854Z,0
2018-02-02T03:44:08.951Z,0
2018-02-02T03:45:18.729Z,0
2018-02-02T03:46:28.817Z,0
2018-02-02T03:47:38.848Z,0
2018-02-02T03:48:48.634Z,0
2018-02-02T03:49:58.492Z,0
2018-02-02T03:51:08.533Z,0
2018-02-02T03:52:18.309Z,0
2018-02-02T03:53:28.354Z,0
2018-02-02T03:54:38.403Z,0
2018-02-02T03:55:48.452Z,0
2018-02-02T03:56:58.494Z,0
2018-02-02T03:58:08.553Z,0
2018-02-02T03:59:18.338Z,0
2018-02-02T04:00:28.380Z,0
2018-02-02T04:01:38.431Z,0
2018-02-02T04:02:48.486Z,0
2018-02-02T04:03:58.321Z,0
2018-02-02T04:05:08.113Z,0
2018-02-02T04:06:17.891Z,0
2018-02-02T04:07:27.679Z,0
2018-02-02T04:08:37.720Z,0
2018-02-02T04:09:47.799Z,0
2018-02-02T04:10:57.847Z,0
2018-02-02T04:12:07.899Z,0
2018-02-02T04:13:17.973Z,0
2018-02-02T04:14:28.033Z,0
2018-02-02T04:15:38.086Z,0
2018-02-02T04:16:47.888Z,0
2018-02-02T04:17:57.945Z,0
2018-02-02T04:19:08.016Z,0
2018-02-02T04:20:18.067Z,0
2018-02-02T04:21:28.211Z,0
2018-02-02T04:22:37.990Z,0
2018-02-02T04:23:47.786Z,0
2018-02-02T04:24:58.543Z,0
2018-02-02T04:26:08.320Z,0
2018-02-02T04:27:18.452Z,0
2018-02-02T04:28:28.238Z,0
2018-02-02T04:29:38.286Z,0
2018-02-02T04:30:48.338Z,0
2018-02-02T04:31:58.389Z,0
2018-02-02T04:33:08.437Z,0
2018-02-02T04:34:18.709Z,0
2018-02-02T04:35:28.758Z,0
2018-02-02T04:36:38.796Z,0
2018-02-02T04:37:48.854Z,0
2018-02-02T04:38:58.905Z,0
2018-02-02T04:40:08.701Z,0
2018-02-02T04:41:18.733Z,0
2018-02-02T04:42:28.826Z,0
2018-02-02T04:43:38.609Z,0
2018-02-02T04:44:48.705Z,0
2018-02-02T04:45:58.747Z,0
2018-02-02T04:47:08.520Z,0
2018-02-02T04:48:18.569Z,0
2018-02-02T04:49:28.101Z,0
2018-02-02T04:50:37.895Z,0
2018-02-02T04:51:47.953Z,0
2018-02-02T04:52:57.993Z,0
2018-02-02T04:54:07.784Z,0
2018-02-02T04:55:17.570Z,0
2018-02-02T04:56:27.352Z,0
2018-02-02T04:57:37.398Z,0
2018-02-02T04:58:47.450Z,0
2018-02-02T04:59:56.974Z,0
2018-02-02T05:01:07.019Z,0
2018-02-02T05:02:17.063Z,0
2018-02-02T05:03:26.847Z,0
2018-02-02T05:04:36.638Z,0
2018-02-02T05:05:46.430Z,0
2018-02-02T05:06:56.720Z,0
2018-02-02T05:08:06.757Z,0
2018-02-02T05:09:16.541Z,0
2018-02-02T05:10:26.581Z,0
2018-02-02T05:11:36.625Z,0
2018-02-02T05:12:46.692Z,0
2018-02-02T05:13:56.274Z,0
2018-02-02T05:15:05.804Z,0
2018-02-02T05:16:15.331Z,0
2018-02-02T05:17:25.358Z,0
2018-02-02T05:18:35.173Z,0
2018-02-02T05:19:45.208Z,0
2018-02-02T05:20:55.269Z,0
2018-02-02T05:22:05.330Z,0
2018-02-02T05:23:15.392Z,0
2018-02-02T05:24:25.429Z,0
2018-02-02T05:25:35.491Z,0
2018-02-02T05:26:44.757Z,0
2018-02-02T05:27:54.798Z,0
2018-02-02T05:29:04.587Z,0
2018-02-02T05:30:14.658Z,0
2018-02-02T05:31:24.444Z,0
2018-02-02T05:32:34.507Z,0
2018-02-02T05:33:44.554Z,0
2018-02-02T05:34:54.355Z,0
2018-02-02T05:36:04.132Z,0
2018-02-02T05:37:14.234Z,0
2018-02-02T05:38:23.805Z,0
2018-02-02T05:39:33.847Z,0
2018-02-02T05:40:43.664Z,0
2018-02-02T05:41:53.461Z,0
2018-02-02T05:43:03.513Z,0
2018-02-02T05:44:13.298Z,0
2018-02-02T05:45:23.096Z,0
2018-02-02T05:46:32.882Z,0
2018-02-02T05:47:42.919Z,0
2018-02-02T05:48:52.991Z,0
2018-02-02T05:50:03.038Z,0
2018-02-02T05:51:13.094Z,0
2018-02-02T05:52:22.892Z,0
2018-02-02T05:53:32.927Z,0
2018-02-02T05:54:42.976Z,0
2018-02-02T05:55:53.025Z,0
2018-02-02T05:57:03.099Z,0
2018-02-02T05:58:13.165Z,0
2018-02-02T05:59:23.610Z,0
2018-02-02T06:00:33.409Z,0
2018-02-02T06:01:43.472Z,0
2018-02-02T06:02:53.015Z,0
2018-02-02T06:04:03.073Z,0
2018-02-02T06:05:13.128Z,0
2018-02-02T06:06:22.912Z,0
2018-02-02T06:07:32.981Z,0
2018-02-02T06:08:42.505Z,0
2018-02-02T06:09:52.317Z,0
2018-02-02T06:11:02.370Z,0
2018-02-02T06:12:12.171Z,0
2018-02-02T06:13:22.229Z,0
2018-02-02T06:14:31.756Z,0
2018-02-02T06:15:41.792Z,0
2018-02-02T06:16:51.884Z,0
2018-02-02T06:18:01.924Z,0
2018-02-02T06:19:11.984Z,0
2018-02-02T06:20:21.759Z,0
2018-02-02T06:21:31.560Z,0
2018-02-02T06:22:41.608Z,0
2018-02-02T06:23:51.646Z,0
2018-02-02T06:25:01.443Z,0
2018-02-02T06:26:11.514Z,0
2018-02-02T06:27:21.561Z,0
2018-02-02T06:28:31.606Z,0
2018-02-02T06:29:41.663Z,5
2018-02-02T06:30:51.460Z,5
2018-02-02T06:32:01.510Z,5
2018-02-02T06:33:11.570Z,5
2018-02-02T06:34:21.774Z,5
2018-02-02T06:35:31.576Z,5
2018-02-02T06:36:41.355Z,5
2018-02-02T06:37:51.406Z,5
2018-02-02T06:39:01.452Z,5
2018-02-02T06:40:11.488Z,5
2018-02-02T06:41:21.550Z,10
2018-02-02T06:42:31.613Z,10
2018-02-02T06:43:41.656Z,10
2018-02-02T06:44:51.700Z,10
2018-02-02T06:46:01.749Z,10
2018-02-02T06:47:11.831Z,10
2018-02-02T06:48:21.887Z,15
2018-02-02T06:49:31.682Z,15
2018-02-02T06:50:41.477Z,15
2018-02-02T06:51:51.278Z,15
2018-02-02T06:53:01.339Z,15
2018-02-02T06:54:11.143Z,15
2018-02-02T06:55:21.190Z,20
2018-02-02T06:56:30.988Z,20
2018-02-02T06:57:41.081Z,20
2018-02-02T06:58:51.380Z,20
2018-02-02T07:00:01.428Z,20
2018-02-02T07:01:11.221Z,20
2018-02-02T07:02:21.262Z,20
2018-02-02T07:03:31.385Z,20
2018-02-02T07:04:40.979Z,20
2018-02-02T07:05:51.021Z,20
2018-02-02T07:07:01.914Z,20
2018-02-02T07:08:11.965Z,20
2018-02-02T07:09:21.785Z,20
2018-02-02T07:10:31.874Z,25
2018-02-02T07:11:41.921Z,25
2018-02-02T07:12:51.981Z,25
2018-02-02T07:14:02.037Z,25
2018-02-02T07:15:12.093Z,30
2018-02-02T07:16:22.206Z,30
2018-02-02T07:17:32.265Z,30
2018-02-02T07:18:42.313Z,30
2018-02-02T07:19:52.092Z,30
2018-02-02T07:21:02.144Z,30
2018-02-02T07:22:12.206Z,30
2018-02-02T07:23:22.001Z,30
2018-02-02T07:24:31.824Z,30
2018-02-02T07:25:41.856Z,30
2018-02-02T07:26:51.923Z,35
2018-02-02T07:28:01.975Z,35
2018-02-02T07:29:12.036Z,35
2018-02-02T07:30:21.824Z,35
2018-02-02T07:31:31.875Z,40
2018-02-02T07:32:41.908Z,40
2018-02-02T07:33:52.014Z,40
2018-02-02T07:35:01.551Z,40
2018-02-02T07:36:11.612Z,40
2018-02-02T07:37:21.708Z,40
2018-02-02T07:38:31.896Z,40
2018-02-02T07:39:41.962Z,40
2018-02-02T07:40:51.745Z,40
2018-02-02T07:42:01.797Z,40
2018-02-02T07:43:12.259Z,40
2018-02-02T07:44:22.306Z,45
2018-02-02T07:45:32.370Z,45
2018-02-02T07:46:42.414Z,45
2018-02-02T07:47:52.466Z,50
2018-02-02T07:49:03.037Z,50
2018-02-02T07:50:13.089Z,50
2018-02-02T07:51:22.926Z,50
2018-02-02T07:52:32.779Z,50
2018-02-02T07:53:42.829Z,55
2018-02-02T07:54:52.880Z,55
2018-02-02T07:56:02.939Z,55
2018-02-02T07:57:13.019Z,55
2018-02-02T07:58:23.091Z,55
2018-02-02T07:59:33.144Z,55
2018-02-02T08:00:42.929Z,60
2018-02-02T08:01:52.836Z,60
2018-02-02T08:03:02.388Z,60
2018-02-02T08:04:12.475Z,60
2018-02-02T08:05:22.589Z,60
2018-02-02T08:06:32.689Z,60
2018-02-02T08:07:42.492Z,60
2018-02-02T08:08:52.544Z,60
2018-02-02T08:10:02.596Z,65
2018-02-02T08:11:12.654Z,65
2018-02-02T08:12:22.693Z,65
2018-02-02T08:13:32.480Z,65
2018-02-02T08:14:42.540Z,65
2018-02-02T08:15:52.060Z,70
2018-02-02T08:17:02.125Z,70
2018-02-02T08:18:12.172Z,70
2018-02-02T08:19:22.215Z,70
2018-02-02T08:20:32.311Z,70
2018-02-02T08:21:42.357Z,70
2018-02-02T08:22:52.423Z,70
2018-02-02T08:24:02.509Z,70
2018-02-02T08:25:12.551Z,70
2018-02-02T08:26:22.592Z,70
2018-02-02T08:27:32.128Z,70
2018-02-02T08:28:42.179Z,70
2018-02-02T08:29:52.235Z,70
2018-02-02T08:31:02.290Z,70
2018-02-02T08:32:12.082Z,75
2018-02-02T08:33:22.131Z,75
2018-02-02T08:34:32.188Z,75
2018-02-02T08:35:42.242Z,75
2018-02-02T08:36:52.280Z,75
2018-02-02T08:38:02.331Z,75
2018-02-02T08:39:12.134Z,75
2018-02-02T08:40:21.933Z,75
2018-02-02T08:41:31.981Z,75
2018-02-02T08:42:42.285Z,75
2018-02-02T08:43:52.353Z,75
2018-02-02T08:45:02.164Z,75
2018-02-02T08:46:11.952Z,75
2018-02-02T08:47:21.987Z,75
2018-02-02T08:48:31.794Z,75
2018-02-02T08:49:41.860Z,75
2018-02-02T08:50:51.700Z,75
2018-02-02T08:52:01.515Z,75
2018-02-02T08:53:11.569Z,75
2018-02-02T08:54:21.721Z,75
2018-02-02T08:55:31.769Z,75
2018-02-02T08:56:41.844Z,75
2018-02-02T08:57:51.881Z,75
2018-02-02T08:59:01.915Z,75
2018-02-02T09:00:11.978Z,75
2018-02-02T09:01:22.036Z,75
2018-02-02T09:02:31.813Z,80
2018-02-02T09:03:41.590Z,80
2018-02-02T09:04:51.638Z,80
2018-02-02T09:06:01.865Z,80
2018-02-02T09:07:11.670Z,75
2018-02-02T09:08:21.733Z,75
2018-02-02T09:09:31.509Z,75
2018-02-02T09:10:41.562Z,75
2018-02-02T09:11:51.638Z,75
2018-02-02T09:13:01.730Z,75
2018-02-02T09:14:11.780Z,75
2018-02-02T09:15:21.566Z,75
2018-02-02T09:16:31.636Z,70
2018-02-02T09:17:41.689Z,70
2018-02-02T09:18:51.756Z,70
2018-02-02T09:20:01.809Z,70
2018-02-02T09:21:11.849Z,70
2018-02-02T09:22:21.903Z,65
2018-02-02T09:23:31.955Z,65
2018-02-02T09:24:41.739Z,65
2018-02-02T09:25:51.788Z,70
2018-02-02T09:27:01.855Z,70
2018-02-02T09:28:11.922Z,70
2018-02-02T09:29:21.707Z,70
2018-02-02T09:30:31.852Z,70
2018-02-02T09:31:41.898Z,70
2018-02-02T09:32:51.492Z,70
2018-02-02T09:34:02.504Z,70
2018-02-02T09:35:12.562Z,70
2018-02-02T09:36:22.092Z,70
2018-02-02T09:37:32.147Z,70
2018-02-02T09:38:42.214Z,65
2018-02-02T09:39:52.254Z,70
2018-02-02T09:41:02.052Z,70
2018-02-02T09:42:12.170Z,70
2018-02-02T09:43:21.957Z,70
2018-02-02T09:44:32.002Z,70
2018-02-02T09:45:41.794Z,70
2018-02-02T09:46:51.861Z,70
2018-02-02T09:48:01.921Z,70
2018-02-02T09:49:11.711Z,70
2018-02-02T09:50:21.501Z,70
2018-02-02T09:51:31.028Z,70
2018-02-02T09:52:40.551Z,70
2018-02-02T09:53:50.580Z,75
2018-02-02T09:55:00.369Z,75
2018-02-02T09:56:10.228Z,75
2018-02-02T09:57:20.276Z,75
2018-02-02T09:58:30.385Z,75
2018-02-02T09:59:40.439Z,75
2018-02-02T10:00:50.548Z,75
2018-02-02T10:02:00.602Z,75
2018-02-02T10:03:10.655Z,75
2018-02-02T10:04:20.461Z,75
2018-02-02T10:05:30.509Z,75
2018-02-02T10:06:40.313Z,75
2018-02-02T10:07:50.106Z,75
2018-02-02T10:09:00.144Z,75
2018-02-02T10:10:10.194Z,75
2018-02-02T10:11:20.029Z,75
2018-02-02T10:12:30.089Z,75
2018-02-02T10:13:40.169Z,75
2018-02-02T10:14:50.231Z,75
2018-02-02T10:16:00.275Z,75
2018-02-02T10:17:10.320Z,75
2018-02-02T10:18:20.107Z,75
2018-02-02T10:19:29.891Z,75
2018-02-02T10:20:40.350Z,75
2018-02-02T10:21:50.401Z,80
2018-02-02T10:23:00.885Z,80
2018-02-02T10:24:10.930Z,80
2018-02-02T10:25:20.984Z,80
2018-02-02T10:26:31.036Z,80
2018-02-02T10:27:40.846Z,80
2018-02-02T10:28:50.393Z,80
2018-02-02T10:30:00.495Z,80
2018-02-02T10:31:10.562Z,75
2018-02-02T10:32:20.629Z,75
2018-02-02T10:33:30.680Z,75
2018-02-02T10:34:40.727Z,80
2018-02-02T10:35:50.778Z,80
2018-02-02T10:37:00.828Z,80
2018-02-02T10:38:10.603Z,80
2018-02-02T10:39:20.666Z,80
2018-02-02T10:40:30.524Z,80
2018-02-02T10:41:40.329Z,75
2018-02-02T10:42:50.127Z,80
2018-02-02T10:43:59.927Z,75
2018-02-02T10:45:09.985Z,75
2018-02-02T10:46:19.774Z,75
2018-02-02T10:47:29.583Z,75
2018-02-02T10:48:39.623Z,75
2018-02-02T10:49:49.662Z,75
2018-02-02T10:50:59.195Z,75
2018-02-02T10:52:09.322Z,75
2018-02-02T10:53:18.938Z,75
2018-02-02T10:54:28.730Z,75
2018-02-02T10:55:38.803Z,75
2018-02-02T10:56:48.836Z,75
2018-02-02T10:57:58.618Z,75
2018-02-02T10:59:08.669Z,75
2018-02-02T11:00:18.761Z,70
2018-02-02T11:01:28.843Z,70
2018-02-02T11:02:38.621Z,70
2018-02-02T11:03:48.696Z,70
2018-02-02T11:04:58.742Z,65
2018-02-02T11:06:08.559Z,65
2018-02-02T11:07:18.616Z,65
2018-02-02T11:08:28.422Z,65
2018-02-02T11:09:38.500Z,60
2018-02-02T11:10:48.620Z,60
2018-02-02T11:11:58.676Z,60
2018-02-02T11:13:08.750Z,65
2018-02-02T11:14:18.782Z,60
2018-02-02T11:15:28.823Z,60
2018-02-02T11:16:38.612Z,60
2018-02-02T11:17:48.648Z,60
2018-02-02T11:18:58.698Z,60
2018-02-02T11:20:08.744Z,55
2018-02-02T11:21:18.778Z,55
2018-02-02T11:22:28.905Z,55
2018-02-02T11:23:38.970Z,50
2018-02-02T11:24:49.019Z,50
2018-02-02T11:25:59.064Z,50
2018-02-02T11:27:09.169Z,50
2018-02-02T11:28:19.411Z,55
2018-02-02T11:29:29.005Z,55
2018-02-02T11:30:38.800Z,55
2018-02-02T11:31:48.848Z,55
2018-02-02T11:32:58.907Z,55
2018-02-02T11:34:08.703Z,50
2018-02-02T11:35:18.502Z,50
2018-02-02T11:36:28.565Z,50
2018-02-02T11:37:38.626Z,50
2018-02-02T11:38:48.415Z,50
2018-02-02T11:39:58.477Z,50
2018-02-02T11:41:08.533Z,50
2018-02-02T11:42:18.330Z,50
2018-02-02T11:43:28.388Z,45
2018-02-02T11:44:38.219Z,45
2018-02-02T11:45:48.308Z,45
2018-02-02T11:46:58.356Z,45
2018-02-02T11:48:08.407Z,45
2018-02-02T11:49:18.196Z,45
2018-02-02T11:50:28.242Z,45
2018-02-02T11:51:37.777Z,45
2018-02-02T11:52:47.841Z,45
2018-02-02T11:53:57.903Z,45
2018-02-02T11:55:07.956Z,45
2018-02-02T11:56:17.806Z,45
2018-02-02T11:57:27.880Z,45
2018-02-02T11:58:37.684Z,45
2018-02-02T11:59:47.484Z,45
2018-02-02T12:00:57.531Z,45
2018-02-02T12:02:07.634Z,45
2018-02-02T12:03:17.421Z,45
2018-02-02T12:04:27.209Z,45
2018-02-02T12:05:37.248Z,45
2018-02-02T12:06:47.167Z,45
2018-02-02T12:07:57.296Z,45
2018-02-02T12:09:07.355Z,45
2018-02-02T12:10:17.407Z,45
2018-02-02T12:11:27.195Z,45
2018-02-02T12:12:37.050Z,45
2018-02-02T12:13:47.107Z,45
2018-02-02T12:14:56.901Z,45
2018-02-02T12:16:06.946Z,45
2018-02-02T12:17:16.751Z,45
2018-02-02T12:18:26.805Z,45
2018-02-02T12:19:36.921Z,45
2018-02-02T12:20:46.712Z,45
2018-02-02T12:21:56.789Z,45
2018-02-02T12:23:06.857Z,45
2018-02-02T12:24:16.922Z,45
2018-02-02T12:25:26.999Z,45
2018-02-02T12:26:36.553Z,45
2018-02-02T12:27:46.587Z,45
2018-02-02T12:28:56.630Z,45
2018-02-02T12:30:06.436Z,45
2018-02-02T12:31:15.704Z,45
2018-02-02T12:32:25.760Z,45
2018-02-02T12:33:35.858Z,45
2018-02-02T12:34:45.934Z,45
2018-02-02T12:35:55.729Z,45
2018-02-02T12:37:05.532Z,45
2018-02-02T12:38:15.337Z,45
2018-02-02T12:39:25.199Z,45
2018-02-02T12:40:34.981Z,45
2018-02-02T12:41:45.035Z,45
2018-02-02T12:42:55.081Z,50
2018-02-02T12:44:05.137Z,50
2018-02-02T12:45:14.933Z,45
2018-02-02T12:46:25.006Z,45
2018-02-02T12:47:35.071Z,45
2018-02-02T12:48:45.124Z,45
2018-02-02T12:49:54.907Z,45
2018-02-02T12:51:05.048Z,50
2018-02-02T12:52:15.095Z,50
2018-02-02T12:53:25.152Z,50
2018-02-02T12:54:34.953Z,45
2018-02-02T12:55:45.016Z,45
2018-02-02T12:56:54.870Z,45
2018-02-02T12:58:04.925Z,45
2018-02-02T12:59:14.716Z,45
2018-02-02T13:00:24.502Z,45
2018-02-02T13:01:34.040Z,50
2018-02-02T13:02:44.079Z,50
2018-02-02T13:03:54.137Z,50
2018-02-02T13:05:04.179Z,50
2018-02-02T13:06:14.227Z,50
2018-02-02T13:07:24.002Z,50
2018-02-02T13:08:34.354Z,50
2018-02-02T13:09:44.156Z,50
2018-02-02T13:10:53.991Z,50
2018-02-02T13:12:04.072Z,50
2018-02-02T13:13:14.122Z,50
2018-02-02T13:14:24.240Z,50
2018-02-02T13:15:34.050Z,50
2018-02-02T13:16:44.193Z,50
2018-02-02T13:17:54.257Z,50
2018-02-02T13:19:04.337Z,45
2018-02-02T13:20:14.386Z,45
2018-02-02T13:21:24.444Z,45
2018-02-02T13:22:34.521Z,45
2018-02-02T13:23:44.053Z,50
2018-02-02T13:24:54.138Z,50
2018-02-02T13:26:04.210Z,50
2018-02-02T13:27:14.007Z,50
2018-02-02T13:28:24.068Z,50
2018-02-02T13:29:33.608Z,50
2018-02-02T13:30:43.668Z,50
2018-02-02T13:31:53.724Z,50
2018-02-02T13:33:03.776Z,45
2018-02-02T13:34:13.884Z,45
2018-02-02T13:35:23.971Z,45
2018-02-02T13:36:34.049Z,45
2018-02-02T13:37:44.100Z,50
2018-02-02T13:38:54.160Z,50
2018-02-02T13:40:04.018Z,50
2018-02-02T13:41:14.079Z,50
2018-02-02T13:42:23.610Z,50
2018-02-02T13:43:33.404Z,55
2018-02-02T13:44:43.456Z,55
2018-02-02T13:45:53.512Z,55
2018-02-02T13:47:03.297Z,55
2018-02-02T13:48:13.110Z,55
2018-02-02T13:49:22.908Z,50
2018-02-02T13:50:32.715Z,50
2018-02-02T13:51:42.779Z,50
2018-02-02T13:52:52.566Z,45
2018-02-02T13:54:02.437Z,45
2018-02-02T13:55:12.247Z,45
2018-02-02T13:56:21.807Z,45
2018-02-02T13:57:31.879Z,45
2018-02-02T13:58:41.950Z,45
2018-02-02T13:59:51.734Z,45
2018-02-02T14:01:01.775Z,45
2018-02-02T14:02:11.817Z,40
2018-02-02T14:03:21.896Z,40
2018-02-02T14:04:31.969Z,40
2018-02-02T14:05:42.035Z,40
2018-02-02T14:06:51.836Z,40
2018-02-02T14:08:01.383Z,40
2018-02-02T14:09:11.435Z,40
2018-02-02T14:10:21.498Z,40
2018-02-02T14:11:31.554Z,40
2018-02-02T14:12:41.343Z,40
2018-02-02T14:13:51.161Z,40
2018-02-02T14:15:01.348Z,40
2018-02-02T14:16:11.391Z,40
2018-02-02T14:17:21.438Z,35
2018-02-02T14:18:31.567Z,35
2018-02-02T14:19:41.383Z,35
2018-02-02T14:20:51.201Z,35
2018-02-02T14:22:01.037Z,35
2018-02-02T14:23:10.827Z,35
2018-02-02T14:24:20.913Z,35
2018-02-02T14:25:30.988Z,35
2018-02-02T14:26:40.834Z,35
2018-02-02T14:27:50.889Z,35
2018-02-02T14:29:00.942Z,35
2018-02-02T14:30:11.007Z,35
2018-02-02T14:31:21.066Z,35
2018-02-02T14:32:31.149Z,35
2018-02-02T14:33:41.184Z,35
2018-02-02T14:34:51.231Z,35
2018-02-02T14:36:00.792Z,35
2018-02-02T14:37:10.318Z,35
2018-02-02T14:38:20.377Z,35
2018-02-02T14:39:30.467Z,35
2018-02-02T14:40:40.547Z,35
2018-02-02T14:41:50.612Z,30
2018-02-02T14:43:00.682Z,30
2018-02-02T14:44:10.533Z,30
2018-02-02T14:45:20.601Z,30
2018-02-02T14:46:30.669Z,30
2018-02-02T14:47:40.718Z,30
2018-02-02T14:48:50.780Z,25
2018-02-02T14:50:00.934Z,25
2018-02-02T14:51:10.743Z,25
2018-02-02T14:52:20.805Z,25
2018-02-02T14:53:30.897Z,25
2018-02-02T14:54:40.988Z,25
2018-02-02T14:55:50.776Z,25
2018-02-02T14:57:00.865Z,25
2018-02-02T14:58:10.683Z,25
2018-02-02T14:59:20.750Z,25
2018-02-02T15:00:30.814Z,25
2018-02-02T15:01:40.885Z,20
2018-02-02T15:02:50.957Z,20
2018-02-02T15:04:00.762Z,20
2018-02-02T15:05:10.570Z,20
2018-02-02T15:06:20.400Z,20
2018-02-02T15:07:30.252Z,15
2018-02-02T15:08:40.343Z,15
2018-02-02T15:09:50.133Z,15
2018-02-02T15:10:59.917Z,15
2018-02-02T15:12:09.985Z,15
2018-02-02T15:13:20.029Z,15
2018-02-02T15:14:29.560Z,15
2018-02-02T15:15:39.116Z,15
2018-02-02T15:16:48.932Z,15
2018-02-02T15:17:58.753Z,10
2018-02-02T15:19:08.806Z,10
2018-02-02T15:20:18.665Z,10
2018-02-02T15:21:28.724Z,10
2018-02-02T15:22:38.514Z,10
2018-02-02T15:23:48.586Z,10
2018-02-02T15:24:58.669Z,10
2018-02-02T15:26:08.712Z,10
2018-02-02T15:27:18.750Z,10
2018-02-02T15:28:28.557Z,10
2018-02-02T15:29:38.677Z,10
2018-02-02T15:30:48.773Z,10
2018-02-02T15:31:58.838Z,10
2018-02-02T15:33:08.946Z,5
2018-02-02T15:34:19.016Z,5
2018-02-02T15:35:29.085Z,5
2018-02-02T15:36:39.142Z,5
2018-02-02T15:37:49.231Z,5
2018-02-02T15:38:59.043Z,5
2018-02-02T15:40:09.097Z,5
2018-02-02T15:41:19.175Z,5
2018-02-02T15:42:29.246Z,5
2018-02-02T15:43:39.296Z,5
2018-02-02T15:44:50.488Z,0
2018-02-02T15:46:00.303Z,0
2018-02-02T15:47:10.372Z,0
2018-02-02T15:48:20.435Z,0
2018-02-02T15:49:30.477Z,0
2018-02-02T15:50:40.552Z,0
2018-02-02T15:51:50.633Z,0
2018-02-02T15:53:00.688Z,0
2018-02-02T15:54:10.736Z,0
2018-02-02T15:55:20.833Z,0
2018-02-02T15:56:30.904Z,0
2018-02-02T15:57:40.964Z,0
2018-02-02T15:58:50.760Z,0
2018-02-02T16:00:00.813Z,0
2018-02-02T16:01:10.659Z,0
2018-02-02T16:02:20.737Z,0
2018-02-02T16:03:30.813Z,0
2018-02-02T16:04:40.891Z,0
2018-02-02T16:05:51.001Z,0
2018-02-02T16:07:01.069Z,0
2018-02-02T16:08:11.157Z,0
2018-02-02T16:09:21.216Z,0
2018-02-02T16:10:31.284Z,0
2018-02-02T16:11:41.355Z,0
2018-02-02T16:12:51.439Z,0
2018-02-02T16:14:01.244Z,0
2018-02-02T16:15:11.075Z,0
2018-02-02T16:16:21.127Z,0
2018-02-02T16:17:31.000Z,0
2018-02-02T16:18:41.045Z,0
2018-02-02T16:19:51.124Z,0
2018-02-02T16:21:00.934Z,0
2018-02-02T16:22:10.746Z,0
2018-02-02T16:23:20.883Z,0
2018-02-02T16:24:30.969Z,0
2018-02-02T16:25:41.036Z,0
2018-02-02T16:26:50.837Z,0
2018-02-02T16:28:00.696Z,0
2018-02-02T16:29:10.880Z,0
2018-02-02T16:30:20.962Z,0
2018-02-02T16:31:30.770Z,0
2018-02-02T16:32:40.846Z,0
2018-02-02T16:33:50.897Z,0
2018-02-02T16:35:01.014Z,0
2018-02-02T16:36:11.092Z,0
2018-02-02T16:37:20.909Z,0
2018-02-02T16:38:30.957Z,0
2018-02-02T16:39:41.008Z,0
2018-02-02T16:40:50.877Z,0
2018-02-02T16:42:00.945Z,0
2018-02-02T16:43:11.018Z,0
2018-02-02T16:44:20.833Z,0
2018-02-02T16:45:30.902Z,0
2018-02-02T16:46:41.013Z,0
2018-02-02T16:47:50.829Z,0
2018-02-02T16:49:00.889Z,0
2018-02-02T16:50:10.945Z,0
2018-02-02T16:51:21.016Z,0
2018-02-02T16:52:30.827Z,0
2018-02-02T16:53:40.874Z,0
2018-02-02T16:54:50.957Z,0
2018-02-02T16:56:00.768Z,0
2018-02-02T16:57:10.851Z,0
2018-02-02T16:58:20.963Z,0
2018-02-02T16:59:31.037Z,0
2018-02-02T17:00:41.094Z,0
2018-02-02T17:01:51.140Z,0
2018-02-02T17:03:01.191Z,0
2018-02-02T17:04:11.275Z,0
2018-02-02T17:05:21.354Z,0
2018-02-02T17:06:31.427Z,0
2018-02-02T17:07:41.487Z,0
2018-02-02T17:08:51.524Z,0
2018-02-02T17:10:01.326Z,0
2018-02-02T17:11:11.145Z,0
2018-02-02T17:12:21.218Z,0
2018-02-02T17:13:31.295Z,0
2018-02-02T17:14:41.344Z,0
2018-02-02T17:15:51.147Z,0
2018-02-02T17:17:01.219Z,0
2018-02-02T17:18:11.300Z,0
2018-02-02T17:19:21.381Z,0
2018-02-02T17:20:30.921Z,0
2018-02-02T17:21:40.976Z,0
2018-02-02T17:22:51.032Z,0
2018-02-02T17:24:01.146Z,0
2018-02-02T17:25:11.211Z,0
2018-02-02T17:26:21.025Z,0